MUCU/SCU METAR and TAF weather

Enter ICAO airport designator
Station Type Date Time Source
MUCU METAR 2019/10/23 06:51 UTC NOAA

MUCU 230651Z 36005KT 330V030 9000 FEW020 24/21 Q1012


Station Type Date Time Source
MUCU Decoded METAR 2019/10/23 06:51 UTC NOAA

Santiago De Cuba, Oriente, Cuba (MUCU) 19-58N 075-51W 55M
Oct 23, 2019 - 02:51 AM EDT / 2019.10.23 0651 UTC
Wind: from the N (360 degrees) at 6 MPH (5 KT) (direction variable):0
Visibility: 5 mile(s):0
Sky conditions: mostly clear
Temperature: 75 F (24 C)
Dew Point: 69 F (21 C)
Relative Humidity: 83%
Pressure (altimeter): 29.88 in. Hg (1012 hPa)
ob: MUCU 230651Z 36005KT 330V030 9000 FEW020 24/21 Q1012
cycle: 7

Station Type Date Time Source
MUCU TAF 2019/10/23 06:03 UTC NOAA

TAF MUCU 230500Z 2306/2406 36005KT 9000 SCT020
BECMG 2315/2317 18008KT
TEMPO 2318/2324 5000 SHRA SCT018CB BKN020
BECMG 2401/2403 36005KT

Example: see airport list